createdAt,value
2023-06-11T00:03:54.539Z,17.60
2023-06-11T00:08:56.831Z,19.90
2023-06-11T00:13:58.578Z,14.60
2023-06-11T00:19:00.336Z,14.90
2023-06-11T00:24:02.842Z,13.80
2023-06-11T00:29:04.842Z,13.50
2023-06-11T00:34:06.840Z,12.80
2023-06-11T00:39:08.697Z,12.60
2023-06-11T00:44:10.547Z,11.30
2023-06-11T00:49:12.895Z,11.90
2023-06-11T00:54:17.670Z,14.60
2023-06-11T00:59:21.060Z,19.40
2023-06-11T01:04:24.832Z,24.60
2023-06-11T01:09:28.811Z,22.70
2023-06-11T01:14:33.553Z,20.80
2023-06-11T01:19:38.533Z,22.10
2023-06-11T01:25:09.996Z,20.10
2023-06-11T01:30:21.821Z,19.00
2023-06-11T01:35:25.651Z,20.30
2023-06-11T01:40:28.724Z,19.40
2023-06-11T01:45:34.021Z,19.00
2023-06-11T01:50:36.413Z,18.20
2023-06-11T01:55:38.256Z,17.50
2023-06-11T02:00:40.132Z,17.40
2023-06-11T02:05:41.830Z,19.10
2023-06-11T02:10:46.581Z,19.90
2023-06-11T02:15:48.310Z,19.30
2023-06-11T02:20:50.540Z,20.90
2023-06-11T02:25:54.513Z,22.30
2023-06-11T02:30:56.253Z,22.30
2023-06-11T02:35:58.055Z,21.40
2023-06-11T02:40:59.834Z,26.10
2023-06-11T02:46:01.734Z,24.70
2023-06-11T02:51:03.530Z,30.70
2023-06-11T02:56:05.433Z,29.60
2023-06-11T03:01:07.197Z,26.70
2023-06-11T03:06:09.788Z,26.90
2023-06-11T03:11:11.884Z,25.90
2023-06-11T03:16:18.899Z,28.80
2023-06-11T03:21:20.979Z,29.90
2023-06-11T03:26:23.220Z,24.80
2023-06-11T03:31:25.395Z,21.20
2023-06-11T03:36:27.522Z,21.10
2023-06-11T03:41:30.108Z,18.50
2023-06-11T03:46:32.656Z,19.40
2023-06-11T03:51:35.317Z,20.30
2023-06-11T03:56:38.035Z,20.70
2023-06-11T04:07:13.671Z,21.30
2023-06-11T04:12:16.024Z,25.80
2023-06-11T04:17:19.048Z,34.60
2023-06-11T04:22:22.050Z,35.50
2023-06-11T04:27:24.140Z,31.70
2023-06-11T04:32:28.057Z,30.00
2023-06-11T04:37:32.076Z,28.20
2023-06-11T04:42:35.989Z,22.40
2023-06-11T04:47:38.772Z,15.40
2023-06-11T04:52:44.040Z,16.00
2023-06-11T04:57:47.535Z,15.50
2023-06-11T05:02:50.951Z,13.40
2023-06-11T05:07:52.961Z,13.60
2023-06-11T05:12:55.522Z,13.20
2023-06-11T05:17:59.255Z,13.00
2023-06-11T05:23:03.871Z,12.30
2023-06-11T05:28:08.846Z,16.60
2023-06-11T05:33:11.716Z,12.50
2023-06-11T05:38:14.538Z,13.20
2023-06-11T05:43:17.826Z,13.70
2023-06-11T05:48:20.036Z,13.60
2023-06-11T05:53:23.083Z,13.30
2023-06-11T05:58:25.331Z,13.40
2023-06-11T06:03:27.409Z,15.10
2023-06-11T06:08:30.900Z,13.30
2023-06-11T06:13:33.408Z,12.00
2023-06-11T06:18:40.087Z,11.80
2023-06-11T06:23:42.056Z,12.20
2023-06-11T06:28:45.593Z,10.80
2023-06-11T06:33:48.215Z,11.00
2023-06-11T06:38:50.628Z,11.20
2023-06-11T06:43:53.913Z,10.70
2023-06-11T06:48:58.083Z,9.70
2023-06-11T06:54:01.036Z,8.90
2023-06-11T06:59:02.927Z,10.00
2023-06-11T07:04:06.068Z,8.00
2023-06-11T07:09:08.055Z,8.60
2023-06-11T07:14:10.157Z,7.60
2023-06-11T07:19:12.161Z,7.70
2023-06-11T07:24:14.500Z,8.00
2023-06-11T07:29:16.551Z,7.80
2023-06-11T07:34:20.757Z,9.30
2023-06-11T07:39:23.272Z,7.30
2023-06-11T07:44:26.125Z,8.00
2023-06-11T07:49:28.057Z,7.10
2023-06-11T07:54:30.656Z,7.80
2023-06-11T07:59:32.322Z,6.00
2023-06-11T08:04:34.385Z,6.00
2023-06-11T08:09:37.537Z,6.10
2023-06-11T08:14:39.302Z,6.80
2023-06-11T08:19:41.031Z,7.70
2023-06-11T08:24:42.696Z,6.30
2023-06-11T08:29:44.351Z,7.60
2023-06-11T08:34:46.122Z,8.80
2023-06-11T08:39:47.834Z,8.20
2023-06-11T08:44:49.954Z,7.60
2023-06-11T08:49:52.670Z,9.40
2023-06-11T08:54:55.049Z,7.30
2023-06-11T08:59:57.251Z,6.10
2023-06-11T09:04:59.353Z,5.00
2023-06-11T09:10:08.290Z,5.60
2023-06-11T09:15:10.865Z,6.60
2023-06-11T09:20:14.605Z,5.40
2023-06-11T09:25:19.773Z,5.60
2023-06-11T09:30:21.840Z,6.30
2023-06-11T09:35:23.840Z,6.60
2023-06-11T09:40:25.740Z,5.20
2023-06-11T09:45:27.989Z,5.80
2023-06-11T09:50:33.510Z,5.30
2023-06-11T09:55:38.502Z,6.80
2023-06-11T10:00:40.888Z,5.30
2023-06-11T10:05:43.199Z,4.90
2023-06-11T10:10:47.030Z,5.10
2023-06-11T10:15:49.681Z,4.70
2023-06-11T10:20:55.980Z,5.00
2023-06-11T10:25:59.118Z,6.00
2023-06-11T10:31:01.099Z,9.50
2023-06-11T10:36:03.227Z,7.50
2023-06-11T10:41:06.018Z,5.90
2023-06-11T10:46:13.556Z,4.40
2023-06-11T10:51:15.536Z,6.80
2023-06-11T10:56:22.341Z,4.10
2023-06-11T11:01:24.284Z,5.10
2023-06-11T11:06:28.120Z,7.60
2023-06-11T11:11:30.241Z,8.10
2023-06-11T11:16:32.117Z,4.70
2023-06-11T11:21:33.944Z,6.80
2023-06-11T11:26:42.825Z,4.40
2023-06-11T11:31:46.280Z,6.40
2023-06-11T11:36:48.116Z,4.30
2023-06-11T11:41:51.392Z,5.10
2023-06-11T11:46:57.480Z,4.30
2023-06-11T11:52:02.040Z,6.30
2023-06-11T11:57:07.980Z,6.50
2023-06-11T12:02:10.455Z,4.40
2023-06-11T12:07:14.604Z,4.10
2023-06-11T12:12:16.520Z,3.80
2023-06-11T12:17:18.285Z,4.60
2023-06-11T12:22:20.793Z,5.70
2023-06-11T12:27:24.210Z,4.60
2023-06-11T12:32:26.509Z,3.70
2023-06-11T12:37:29.273Z,5.00
2023-06-11T12:42:33.475Z,4.00
2023-06-11T12:47:36.104Z,3.90
2023-06-11T12:52:40.485Z,4.70
2023-06-11T12:57:42.339Z,4.10
2023-06-11T13:02:45.353Z,6.20
2023-06-11T13:07:48.465Z,4.20
2023-06-11T13:12:52.829Z,4.30
2023-06-11T13:17:54.645Z,4.40
2023-06-11T13:22:56.455Z,4.30
2023-06-11T13:27:58.260Z,4.80
2023-06-11T13:33:01.646Z,4.60
2023-06-11T13:38:03.388Z,4.00
2023-06-11T13:43:05.180Z,4.20
2023-06-11T13:48:14.773Z,5.70
2023-06-11T13:53:17.934Z,4.60
2023-06-11T13:58:22.158Z,3.70
2023-06-11T14:03:23.899Z,3.60
2023-06-11T14:08:25.611Z,4.20
2023-06-11T14:13:27.460Z,4.70
2023-06-11T14:18:29.206Z,4.10
2023-06-11T14:23:30.899Z,3.80
2023-06-11T14:28:32.779Z,4.90
2023-06-11T14:33:34.478Z,3.40
2023-06-11T14:38:36.235Z,4.60
2023-06-11T14:43:37.937Z,7.00
2023-06-11T14:48:39.624Z,3.20
2023-06-11T14:53:41.368Z,4.50
2023-06-11T14:58:47.624Z,4.50
2023-06-11T15:03:49.405Z,3.80
2023-06-11T15:08:51.698Z,5.00
2023-06-11T15:13:53.465Z,4.20
2023-06-11T15:18:56.142Z,3.50
2023-06-11T15:23:58.063Z,4.00
2023-06-11T15:29:00.191Z,3.90
2023-06-11T15:34:01.981Z,6.20
2023-06-11T15:39:03.878Z,5.80
2023-06-11T15:44:05.791Z,5.70
2023-06-11T15:49:07.482Z,4.70
2023-06-11T15:54:09.465Z,4.20
2023-06-11T15:59:11.295Z,5.80
2023-06-11T16:04:14.284Z,5.80
2023-06-11T16:09:16.573Z,3.90
2023-06-11T16:14:20.101Z,3.50
2023-06-11T16:19:21.940Z,7.20
2023-06-11T16:24:23.690Z,4.10
2023-06-11T16:29:25.458Z,3.70
2023-06-11T16:34:27.191Z,8.30
2023-06-11T16:39:38.558Z,4.20
2023-06-11T16:44:40.441Z,4.50
2023-06-11T16:49:42.254Z,4.10
2023-06-11T16:54:44.148Z,3.80
2023-06-11T16:59:45.944Z,5.40
2023-06-11T17:04:47.691Z,4.20
2023-06-11T17:09:49.558Z,4.20
2023-06-11T17:14:54.284Z,4.00
2023-06-11T17:19:56.305Z,4.50
2023-06-11T17:24:58.317Z,5.40
2023-06-11T17:30:00.022Z,4.10
2023-06-11T17:35:03.936Z,4.00
2023-06-11T17:40:07.621Z,7.90
2023-06-11T17:45:12.492Z,4.90
2023-06-11T17:50:14.461Z,5.50
2023-06-11T17:55:16.751Z,4.10
2023-06-11T18:00:18.923Z,9.00
2023-06-11T18:05:20.804Z,7.70
2023-06-11T18:10:22.784Z,4.70
2023-06-11T18:15:33.177Z,4.50
2023-06-11T18:20:37.051Z,3.90
2023-06-11T18:25:38.791Z,4.20
2023-06-11T18:30:40.799Z,3.40
2023-06-11T18:35:42.825Z,5.30
2023-06-11T18:40:44.527Z,6.20
2023-06-11T18:45:46.218Z,4.80
2023-06-11T18:50:48.060Z,4.80
2023-06-11T18:55:50.056Z,5.30
2023-06-11T19:00:51.947Z,8.30
2023-06-11T19:05:53.741Z,6.50
2023-06-11T19:10:55.633Z,6.30
2023-06-11T19:15:57.874Z,4.70
2023-06-11T19:20:59.556Z,4.00
2023-06-11T19:26:01.352Z,3.60
2023-06-11T19:31:03.110Z,3.90
2023-06-11T19:36:05.392Z,4.80
2023-06-11T19:41:07.207Z,3.30
2023-06-11T19:46:08.990Z,3.80
2023-06-11T19:51:12.173Z,5.50
2023-06-11T19:56:18.070Z,7.70
2023-06-11T20:01:21.248Z,6.40
2023-06-11T20:06:23.047Z,4.80
2023-06-11T20:11:24.796Z,4.30
2023-06-11T20:16:27.526Z,4.50
2023-06-11T20:21:29.429Z,13.80
2023-06-11T20:26:31.671Z,5.80
2023-06-11T20:31:34.629Z,7.50
2023-06-11T20:36:36.773Z,5.80
2023-06-11T20:41:38.598Z,8.30
2023-06-11T20:46:40.759Z,5.20
2023-06-11T20:51:42.520Z,5.50
2023-06-11T20:56:44.250Z,5.10
2023-06-11T21:01:46.196Z,4.60
2023-06-11T21:06:47.967Z,5.90
2023-06-11T21:11:50.084Z,5.60
2023-06-11T21:16:52.337Z,4.10
2023-06-11T21:21:54.147Z,4.60
2023-06-11T21:26:55.905Z,4.30
2023-06-11T21:31:57.751Z,4.70
2023-06-11T21:36:59.643Z,4.60
2023-06-11T21:42:01.422Z,5.40
2023-06-11T21:47:03.494Z,3.90
2023-06-11T21:52:06.876Z,4.60
2023-06-11T21:57:09.764Z,4.20
2023-06-11T22:02:12.479Z,5.00
2023-06-11T22:07:14.203Z,7.00
2023-06-11T22:12:16.020Z,4.10
2023-06-11T22:17:18.402Z,8.30
2023-06-11T22:22:20.513Z,6.50
2023-06-11T22:27:23.006Z,7.30
2023-06-11T22:32:24.757Z,7.40
2023-06-11T22:37:26.459Z,5.90
2023-06-11T22:42:28.158Z,7.60
2023-06-11T22:47:30.273Z,9.90
2023-06-11T22:52:39.692Z,6.20
2023-06-11T22:57:42.124Z,6.20
2023-06-11T23:02:45.606Z,5.80
2023-06-11T23:07:47.658Z,10.60
2023-06-11T23:12:49.931Z,7.20
2023-06-11T23:17:54.844Z,6.90
2023-06-11T23:22:57.451Z,6.70
2023-06-11T23:28:00.006Z,9.50
2023-06-11T23:33:03.536Z,9.10
2023-06-11T23:38:07.244Z,6.20
2023-06-11T23:43:08.991Z,7.20
2023-06-11T23:48:10.761Z,7.30
2023-06-11T23:53:13.798Z,7.80
2023-06-11T23:58:22.318Z,6.90
